Time;durP1;ratioP1;P1;durP2;ratioP2;P2;SDS_P1;SDS_P2;PMS_P1;PMS_P2;Temp;Humidity;BMP_temperature;BMP_pressure;BME280_temperature;BME280_humidity;BME280_pressure;Samples;Min_cycle;Max_cycle;Signal;HPM_P1;HPM_P2
2023/01/15 00:00:31;;;;;;;1.87;0.50;;;8.50;99.90;;;;;;5137089;27;20440;-57
2023/01/15 00:02:58;;;;;;;1.30;1.20;;;8.50;99.90;;;;;;5136810;27;20998;-57
2023/01/15 00:05:24;;;;;;;2.10;1.10;;;8.50;99.90;;;;;;5137076;27;20426;-57
2023/01/15 00:07:52;;;;;;;1.47;0.67;;;8.50;99.90;;;;;;5136887;27;20477;-57
2023/01/15 00:10:19;;;;;;;1.93;0.80;;;8.40;99.90;;;;;;5137063;27;20815;-57
2023/01/15 00:12:46;;;;;;;0.70;0.70;;;8.40;99.90;;;;;;5137102;27;20463;-57
2023/01/15 00:15:13;;;;;;;4.27;1.50;;;8.40;99.90;;;;;;5136994;27;20460;-57
2023/01/15 00:17:41;;;;;;;2.53;0.80;;;8.40;99.90;;;;;;5136771;27;20924;-58
2023/01/15 00:20:09;;;;;;;2.10;1.10;;;8.30;99.90;;;;;;5136694;27;20444;-58
2023/01/15 00:22:36;;;;;;;2.20;0.87;;;8.20;99.90;;;;;;5136355;27;20488;-57
2023/01/15 00:27:47;;;;;;;1.53;0.83;;;8.10;99.90;;;;;;5136467;27;20407;-58
2023/01/15 00:30:15;;;;;;;4.00;0.90;;;8.10;99.90;;;;;;5136195;27;20436;-57
2023/01/15 00:32:44;;;;;;;2.20;0.73;;;8.10;99.90;;;;;;5136496;27;20469;-58
2023/01/15 00:35:13;;;;;;;1.03;0.80;;;8.00;99.90;;;;;;5136574;27;20814;-58
2023/01/15 00:37:40;;;;;;;4.10;1.10;;;8.00;99.90;;;;;;5136582;27;20451;-58
2023/01/15 00:40:08;;;;;;;2.67;0.77;;;8.00;99.90;;;;;;5136143;27;20549;-58
2023/01/15 00:42:34;;;;;;;3.40;0.97;;;8.00;99.90;;;;;;5136487;27;20912;-58
2023/01/15 00:45:08;;;;;;;2.27;0.90;;;8.10;99.90;;;;;;5135583;27;20479;-58
2023/01/15 00:47:35;;;;;;;5.13;0.80;;;8.20;99.90;;;;;;5136416;27;20429;-59
2023/01/15 00:50:04;;;;;;;4.10;0.80;;;8.30;99.90;;;;;;5136367;27;20448;-59
2023/01/15 00:52:31;;;;;;;1.00;0.60;;;8.40;99.90;;;;;;5135946;27;20476;-58
2023/01/15 00:54:58;;;;;;;2.33;0.70;;;8.40;99.90;;;;;;5136508;27;20449;-59
2023/01/15 00:57:25;;;;;;;1.33;0.87;;;8.50;99.90;;;;;;5136450;27;20449;-59
2023/01/15 00:59:52;;;;;;;5.10;0.90;;;8.50;99.90;;;;;;5136475;27;20440;-57
2023/01/15 01:02:19;;;;;;;1.50;0.80;;;8.40;99.90;;;;;;5137043;27;20982;-57
2023/01/15 01:04:46;;;;;;;0.73;0.40;;;8.40;99.90;;;;;;5136734;27;20447;-57
2023/01/15 01:07:14;;;;;;;1.37;0.60;;;8.40;99.90;;;;;;5138066;27;20456;-57
2023/01/15 01:09:41;;;;;;;0.87;0.50;;;8.40;99.90;;;;;;5137282;27;20800;-57
2023/01/15 01:12:08;;;;;;;2.30;0.70;;;8.50;99.90;;;;;;5136442;27;20481;-58
2023/01/15 01:14:34;;;;;;;0.83;0.50;;;8.50;99.90;;;;;;5135524;27;20448;-58
2023/01/15 01:17:01;;;;;;;2.87;0.70;;;8.50;99.30;;;;;;5136385;27;20443;-58
2023/01/15 01:19:28;;;;;;;1.40;0.60;;;8.50;98.70;;;;;;5136678;27;20519;-58
2023/01/15 01:21:55;;;;;;;1.63;0.60;;;8.40;97.70;;;;;;5134584;27;20480;-57
2023/01/15 01:24:24;;;;;;;2.00;0.53;;;8.40;97.70;;;;;;5135513;27;20923;-58
2023/01/15 01:26:51;;;;;;;0.93;0.40;;;8.30;97.20;;;;;;5135535;27;20459;-58
2023/01/15 01:29:19;;;;;;;0.60;0.50;;;8.30;97.40;;;;;;5136497;27;20425;-58
2023/01/15 01:31:46;;;;;;;1.60;0.40;;;8.30;97.40;;;;;;5135540;27;20487;-58
2023/01/15 01:34:14;;;;;;;2.30;0.87;;;8.30;98.00;;;;;;5135500;27;20448;-59
2023/01/15 01:36:43;;;;;;;2.20;0.60;;;8.30;98.30;;;;;;5135454;27;20449;-58
2023/01/15 01:39:14;;;;;;;0.67;0.50;;;8.30;98.00;;;;;;5135231;27;20452;-58
2023/01/15 01:41:43;;;;;;;2.50;0.43;;;8.30;98.20;;;;;;5135966;27;20463;-58
2023/01/15 01:44:54;;;;;;;1.47;0.50;;;8.40;98.10;;;;;;5135282;27;20826;-57
2023/01/15 01:47:25;;;;;;;1.37;0.40;;;8.40;98.30;;;;;;5134947;27;20444;-58
2023/01/15 01:49:57;;;;;;;0.90;0.60;;;8.40;98.20;;;;;;5135371;27;20924;-58
2023/01/15 01:52:27;;;;;;;2.77;0.97;;;8.40;98.10;;;;;;5135106;27;20473;-59
2023/01/15 01:54:55;;;;;;;1.87;0.97;;;8.40;98.70;;;;;;5135421;27;20465;-59
2023/01/15 01:57:24;;;;;;;3.63;0.60;;;8.50;98.90;;;;;;5134873;27;20430;-58
2023/01/15 01:59:51;;;;;;;1.40;0.60;;;8.50;98.50;;;;;;5134781;27;20445;-58
2023/01/15 02:02:21;;;;;;;1.00;0.60;;;8.50;98.30;;;;;;5135579;27;20460;-58
2023/01/15 02:04:49;;;;;;;1.53;0.60;;;8.60;98.30;;;;;;5134928;27;20489;-59
2023/01/15 02:07:16;;;;;;;3.37;1.10;;;8.50;98.40;;;;;;5134665;27;20455;-58
2023/01/15 02:09:43;;;;;;;8.53;1.27;;;8.50;98.40;;;;;;5134961;27;20453;-58
2023/01/15 02:12:16;;;;;;;1.60;0.50;;;8.50;98.50;;;;;;5134798;27;20465;-58
2023/01/15 02:14:57;;;;;;;3.53;0.70;;;8.50;98.30;;;;;;5134681;27;20421;-58
2023/01/15 02:17:33;;;;;;;3.17;0.83;;;8.60;98.80;;;;;;5134630;27;20437;-59
2023/01/15 02:20:19;;;;;;;4.07;0.90;;;8.60;98.60;;;;;;5134487;27;20485;-58
2023/01/15 02:23:02;;;;;;;1.83;0.60;;;8.60;98.70;;;;;;5134321;27;20468;-58
2023/01/15 02:25:38;;;;;;;2.10;0.50;;;8.60;98.30;;;;;;5134400;27;20438;-58
2023/01/15 02:28:15;;;;;;;2.57;0.50;;;8.70;98.20;;;;;;5134359;27;20448;-57
2023/01/15 02:30:45;;;;;;;3.53;0.67;;;8.60;98.20;;;;;;5134395;27;20446;-59
2023/01/15 02:33:18;;;;;;;1.00;0.60;;;8.70;98.30;;;;;;5134317;27;20473;-58
2023/01/15 02:35:49;;;;;;;4.47;1.20;;;8.60;97.90;;;;;;5134304;27;20433;-58
2023/01/15 02:38:21;;;;;;;6.10;0.77;;;8.60;98.00;;;;;;5134317;27;20434;-58
2023/01/15 02:40:49;;;;;;;3.47;0.70;;;8.60;98.10;;;;;;5134211;27;20452;-58
2023/01/15 02:43:19;;;;;;;1.73;0.50;;;8.50;98.10;;;;;;5134367;27;20487;-58
2023/01/15 02:45:48;;;;;;;1.43;0.70;;;8.50;98.30;;;;;;5134220;27;20450;-58
2023/01/15 02:48:18;;;;;;;1.23;0.70;;;8.60;98.60;;;;;;5133860;27;20945;-58
2023/01/15 02:50:48;;;;;;;1.07;0.80;;;8.60;98.60;;;;;;5133925;27;20887;-58
2023/01/15 02:53:22;;;;;;;2.20;0.80;;;8.60;98.50;;;;;;5134133;27;20473;-58
2023/01/15 02:55:51;;;;;;;0.83;0.60;;;8.60;98.10;;;;;;5134168;27;20437;-57
2023/01/15 02:58:23;;;;;;;5.37;1.27;;;8.60;98.40;;;;;;5134185;27;20479;-58
2023/01/15 03:00:54;;;;;;;2.53;0.70;;;8.60;98.00;;;;;;5134138;27;20429;-58
2023/01/15 03:03:28;;;;;;;3.50;0.97;;;8.60;98.00;;;;;;5133587;27;20848;-56
2023/01/15 03:06:00;;;;;;;10.33;0.70;;;8.60;98.00;;;;;;5134672;27;20442;-58
2023/01/15 03:08:27;;;;;;;3.20;0.90;;;8.60;98.20;;;;;;5136496;27;20439;-58
2023/01/15 03:11:04;;;;;;;5.20;0.67;;;8.70;98.30;;;;;;5138073;27;20445;-58
2023/01/15 03:13:44;;;;;;;2.47;0.90;;;8.70;98.20;;;;;;5137519;27;20468;-57
2023/01/15 03:16:33;;;;;;;4.27;0.90;;;8.70;98.20;;;;;;5137598;27;20943;-57
2023/01/15 03:19:06;;;;;;;4.27;0.50;;;8.60;98.20;;;;;;5137852;27;20425;-58
2023/01/15 03:21:43;;;;;;;2.43;0.90;;;8.60;98.60;;;;;;5137614;27;20467;-57
2023/01/15 03:24:12;;;;;;;3.23;0.97;;;8.70;98.60;;;;;;5137672;27;20464;-58
2023/01/15 03:26:39;;;;;;;3.07;1.20;;;8.70;98.20;;;;;;5137384;27;20444;-58
2023/01/15 03:29:09;;;;;;;4.80;0.83;;;8.60;98.20;;;;;;5137644;27;20456;-57
2023/01/15 03:31:36;;;;;;;8.33;2.50;;;8.60;98.50;;;;;;5137603;27;20473;-57
2023/01/15 03:34:03;;;;;;;2.40;0.80;;;8.60;98.30;;;;;;5137655;27;20423;-57
2023/01/15 03:36:30;;;;;;;5.00;1.57;;;8.60;98.50;;;;;;5137161;27;20941;-58
2023/01/15 03:38:58;;;;;;;6.90;1.17;;;8.50;98.60;;;;;;5137311;27;20480;-58
2023/01/15 03:41:29;;;;;;;2.97;0.83;;;8.50;98.70;;;;;;5137236;27;20469;-58
2023/01/15 03:44:07;;;;;;;5.00;1.23;;;8.50;99.00;;;;;;5137228;27;20472;-57
2023/01/15 03:46:54;;;;;;;4.97;1.30;;;8.50;98.70;;;;;;5137415;27;20434;-58
2023/01/15 03:49:26;;;;;;;3.53;1.10;;;8.60;98.30;;;;;;5137130;27;20799;-58
2023/01/15 03:52:00;;;;;;;1.57;0.77;;;8.50;98.10;;;;;;5137128;27;20472;-57
2023/01/15 03:54:38;;;;;;;1.87;0.63;;;8.50;98.00;;;;;;5137301;27;20434;-58
2023/01/15 03:57:13;;;;;;;3.90;1.10;;;8.40;97.80;;;;;;5137148;27;20434;-57
2023/01/15 03:59:47;;;;;;;3.73;0.80;;;8.30;97.70;;;;;;5137028;27;20431;-58
2023/01/15 04:02:16;;;;;;;3.33;0.80;;;8.20;98.10;;;;;;5136689;27;20866;-58
2023/01/15 04:04:45;;;;;;;2.97;0.73;;;8.20;98.10;;;;;;5136887;27;20487;-58
2023/01/15 04:07:12;;;;;;;3.67;0.90;;;8.20;98.10;;;;;;5136803;27;20428;-58
2023/01/15 04:09:40;;;;;;;3.23;0.90;;;8.20;98.10;;;;;;5136501;27;20950;-58
2023/01/15 04:12:07;;;;;;;3.10;1.07;;;8.20;98.30;;;;;;5136645;27;20473;-57
2023/01/15 04:14:34;;;;;;;7.07;1.20;;;8.10;97.90;;;;;;5136836;27;20437;-57
2023/01/15 04:17:01;;;;;;;3.07;0.97;;;8.10;98.10;;;;;;5136406;27;20966;-58
2023/01/15 04:19:29;;;;;;;9.07;0.90;;;8.10;98.20;;;;;;5135432;27;20448;-58
2023/01/15 04:21:56;;;;;;;3.80;0.70;;;8.00;98.80;;;;;;5119623;27;21026;-57
2023/01/15 04:24:22;;;;;;;4.20;1.10;;;8.10;98.50;;;;;;5115842;28;20483;-58
2023/01/15 04:26:49;;;;;;;3.50;1.53;;;8.10;98.60;;;;;;5115688;28;20455;-58
2023/01/15 04:29:16;;;;;;;3.73;1.00;;;8.10;98.70;;;;;;5115947;28;20452;-58
2023/01/15 04:31:43;;;;;;;7.53;0.90;;;8.10;98.70;;;;;;5115819;28;20468;-57
2023/01/15 04:34:09;;;;;;;2.80;1.20;;;8.00;98.70;;;;;;5115895;28;20449;-58
2023/01/15 04:36:37;;;;;;;4.97;1.00;;;8.00;98.60;;;;;;5115862;28;20452;-58
2023/01/15 04:39:05;;;;;;;6.93;1.10;;;7.90;98.90;;;;;;5115674;28;20457;-57
2023/01/15 04:44:16;;;;;;;6.97;1.80;;;7.90;98.70;;;;;;5115453;28;20510;-57
2023/01/15 04:46:45;;;;;;;9.23;1.43;;;7.90;99.00;;;;;;5115615;28;20446;-57
2023/01/15 04:49:13;;;;;;;4.90;1.20;;;7.90;99.00;;;;;;5115715;28;20459;-57
2023/01/15 04:51:42;;;;;;;8.00;1.47;;;7.90;99.20;;;;;;5115352;28;20476;-57
2023/01/15 04:54:10;;;;;;;12.33;1.63;;;7.90;99.10;;;;;;5115426;27;20458;-57
2023/01/15 04:56:40;;;;;;;5.80;1.57;;;7.90;99.30;;;;;;5115285;28;20459;-56
2023/01/15 04:59:07;;;;;;;4.60;1.10;;;8.00;99.30;;;;;;5115558;28;20449;-57
2023/01/15 05:01:34;;;;;;;3.87;1.27;;;8.00;99.50;;;;;;5115494;28;20476;-57
2023/01/15 05:04:01;;;;;;;6.47;1.60;;;8.00;99.40;;;;;;5115275;28;20554;-58
2023/01/15 05:06:28;;;;;;;3.63;1.00;;;8.00;99.20;;;;;;5115437;27;20443;-58
2023/01/15 05:08:56;;;;;;;12.23;1.00;;;8.00;99.20;;;;;;5115212;28;20449;-58
2023/01/15 05:11:23;;;;;;;10.67;1.30;;;8.00;99.30;;;;;;5115024;28;20511;-57
2023/01/15 05:13:49;;;;;;;3.77;1.03;;;7.90;99.40;;;;;;5115135;28;20485;-57
2023/01/15 05:16:18;;;;;;;13.10;2.13;;;7.90;99.40;;;;;;5114984;28;20456;-58
2023/01/15 05:18:46;;;;;;;12.17;1.50;;;7.90;99.50;;;;;;5114967;28;20440;-58
2023/01/15 05:21:17;;;;;;;4.77;1.20;;;7.80;99.50;;;;;;5114425;28;20962;-56
2023/01/15 05:23:44;;;;;;;5.90;1.37;;;7.90;99.70;;;;;;5114819;28;20452;-58
2023/01/15 05:26:12;;;;;;;3.53;1.20;;;7.90;99.60;;;;;;5114857;28;20501;-57
2023/01/15 05:28:39;;;;;;;9.13;2.20;;;7.90;99.40;;;;;;5114780;28;20444;-57
2023/01/15 05:31:08;;;;;;;5.53;1.40;;;7.90;99.00;;;;;;5114025;28;20974;-58
2023/01/15 05:33:35;;;;;;;8.53;1.40;;;7.90;98.80;;;;;;5114576;28;20497;-57
2023/01/15 05:36:03;;;;;;;4.83;1.53;;;8.00;98.70;;;;;;5114788;28;20455;-57
2023/01/15 05:38:30;;;;;;;5.93;1.23;;;8.00;98.70;;;;;;5114573;28;20459;-58
2023/01/15 05:40:56;;;;;;;7.57;1.10;;;8.00;98.60;;;;;;5114196;28;20455;-58
2023/01/15 05:43:24;;;;;;;3.20;0.97;;;8.00;98.70;;;;;;5114350;28;20475;-57
2023/01/15 05:45:51;;;;;;;7.73;1.20;;;8.00;98.50;;;;;;5114417;28;20843;-58
2023/01/15 05:48:18;;;;;;;5.00;1.23;;;7.90;98.40;;;;;;5114687;28;20457;-58
2023/01/15 05:50:44;;;;;;;8.00;1.17;;;7.90;98.60;;;;;;5114336;28;20441;-57
2023/01/15 05:53:11;;;;;;;5.40;1.00;;;7.90;98.90;;;;;;5114395;28;20475;-57
2023/01/15 05:55:38;;;;;;;5.27;1.63;;;7.80;98.90;;;;;;5114355;28;20447;-58
2023/01/15 05:58:04;;;;;;;4.93;1.57;;;7.90;99.10;;;;;;5114387;28;20432;-58
2023/01/15 06:00:32;;;;;;;4.13;1.13;;;7.80;98.90;;;;;;5114198;28;20452;-58
2023/01/15 06:02:59;;;;;;;6.53;1.40;;;7.90;99.20;;;;;;5113829;28;21007;-58
2023/01/15 06:05:26;;;;;;;6.77;1.40;;;7.90;99.10;;;;;;5114239;28;20491;-58
2023/01/15 06:07:52;;;;;;;6.87;1.27;;;7.90;99.40;;;;;;5114353;28;20453;-58
2023/01/15 06:10:19;;;;;;;5.37;1.60;;;7.80;99.30;;;;;;5114331;28;20448;-58
2023/01/15 06:12:46;;;;;;;5.37;1.10;;;7.80;99.40;;;;;;5113631;28;20478;-58
2023/01/15 06:15:13;;;;;;;8.73;1.00;;;7.80;99.60;;;;;;5114277;28;20469;-58
2023/01/15 06:17:41;;;;;;;7.63;0.93;;;7.80;99.50;;;;;;5114292;28;20446;-57
2023/01/15 06:20:09;;;;;;;3.73;1.50;;;7.80;99.50;;;;;;5113670;28;20826;-58
2023/01/15 06:22:37;;;;;;;2.27;1.00;;;7.70;99.50;;;;;;5113953;28;20472;-57
2023/01/15 06:25:04;;;;;;;10.30;1.20;;;7.80;99.60;;;;;;5113828;28;20969;-58
2023/01/15 06:27:31;;;;;;;2.40;0.83;;;7.70;99.40;;;;;;5114056;28;20439;-57
2023/01/15 06:29:58;;;;;;;5.53;1.40;;;7.70;99.50;;;;;;5113732;28;20830;-57
2023/01/15 06:32:25;;;;;;;4.10;0.97;;;7.70;99.30;;;;;;5113945;28;20534;-57
2023/01/15 06:34:54;;;;;;;5.87;1.10;;;7.70;99.70;;;;;;5113961;28;20425;-57
2023/01/15 06:37:20;;;;;;;4.03;1.10;;;7.70;99.50;;;;;;5113996;28;20451;-58
2023/01/15 06:39:47;;;;;;;4.70;0.83;;;7.70;99.40;;;;;;5113395;28;20451;-57
2023/01/15 06:47:42;;;;;;;11.13;1.93;;;7.70;99.70;;;;;;5118070;28;20424;-57
2023/01/15 06:50:11;;;;;;;3.10;0.80;;;7.70;99.30;;;;;;5117914;28;20986;-57
2023/01/15 06:52:38;;;;;;;3.40;0.97;;;7.70;99.40;;;;;;5117876;28;20476;-57
2023/01/15 06:55:05;;;;;;;4.17;1.33;;;7.70;99.20;;;;;;5117406;27;20450;-58
2023/01/15 06:57:32;;;;;;;3.60;1.27;;;7.70;99.40;;;;;;5118646;28;20452;-58
2023/01/15 06:59:58;;;;;;;9.63;1.33;;;7.70;99.60;;;;;;5117774;28;20443;-58
2023/01/15 07:02:25;;;;;;;11.23;1.40;;;7.70;99.80;;;;;;5117769;28;20495;-58
2023/01/15 07:04:52;;;;;;;3.77;1.10;;;7.70;99.70;;;;;;5117308;28;20979;-58
2023/01/15 07:07:21;;;;;;;4.10;1.10;;;7.70;99.60;;;;;;5117595;28;20462;-58
2023/01/15 07:09:48;;;;;;;5.90;1.50;;;7.70;99.60;;;;;;5117514;28;20446;-58
2023/01/15 07:12:14;;;;;;;3.20;1.10;;;7.60;99.60;;;;;;5117465;28;20468;-58
2023/01/15 07:14:41;;;;;;;5.00;1.43;;;7.60;99.70;;;;;;5120014;28;20951;-57
2023/01/15 07:17:08;;;;;;;4.50;1.33;;;7.50;99.50;;;;;;5117615;28;20515;-58
2023/01/15 07:19:35;;;;;;;5.10;1.07;;;7.60;99.80;;;;;;5117516;28;20454;-58
2023/01/15 07:22:02;;;;;;;8.23;1.30;;;7.60;99.70;;;;;;5133166;27;20478;-57
2023/01/15 07:24:30;;;;;;;5.37;1.30;;;7.60;99.90;;;;;;5138180;27;20483;-57
2023/01/15 07:26:56;;;;;;;8.03;1.17;;;7.60;99.60;;;;;;5138491;27;20457;-58
2023/01/15 07:29:23;;;;;;;3.23;1.20;;;7.70;99.60;;;;;;5138312;27;20496;-57
2023/01/15 07:31:50;;;;;;;4.87;1.10;;;7.70;99.60;;;;;;5138364;27;20474;-57
2023/01/15 07:34:17;;;;;;;3.50;0.80;;;7.70;99.50;;;;;;5138132;27;20478;-57
2023/01/15 07:36:43;;;;;;;4.77;1.03;;;7.60;99.50;;;;;;5138696;27;20451;-57
2023/01/15 07:39:11;;;;;;;7.63;1.10;;;7.60;99.60;;;;;;5139436;27;20451;-57
2023/01/15 07:50:01;;;;;;;4.43;1.80;;;7.60;99.90;;;;;;5138159;27;20395;-58
2023/01/15 07:52:28;;;;;;;5.43;1.57;;;7.50;99.60;;;;;;5137486;27;20474;-58
2023/01/15 07:54:54;;;;;;;8.50;1.40;;;7.60;99.60;;;;;;5137981;27;20454;-58
2023/01/15 07:57:23;;;;;;;1.47;0.87;;;7.60;99.50;;;;;;5137439;27;20443;-58
2023/01/15 07:59:50;;;;;;;3.03;0.90;;;7.50;99.30;;;;;;5137174;27;20451;-57
2023/01/15 08:02:17;;;;;;;6.43;1.37;;;7.50;99.00;;;;;;5136844;27;20465;-58
2023/01/15 08:04:44;;;;;;;4.37;0.70;;;7.50;98.30;;;;;;5136972;27;20474;-58
2023/01/15 08:07:11;;;;;;;3.77;0.70;;;7.50;98.10;;;;;;5136953;27;20455;-58
2023/01/15 08:09:38;;;;;;;3.30;0.93;;;7.50;97.80;;;;;;5137039;27;20441;-58
2023/01/15 08:17:36;;;;;;;2.20;0.73;;;7.30;96.60;;;;;;5137173;27;20810;-58
2023/01/15 08:20:03;;;;;;;1.33;0.70;;;7.30;96.60;;;;;;5136742;27;20434;-58
2023/01/15 08:22:29;;;;;;;1.73;0.40;;;7.30;96.20;;;;;;5136303;27;20868;-58
2023/01/15 08:24:56;;;;;;;2.30;0.50;;;7.30;96.40;;;;;;5136542;27;20474;-58
2023/01/15 08:27:23;;;;;;;0.70;0.60;;;7.20;96.40;;;;;;5136637;27;20430;-58
2023/01/15 08:29:51;;;;;;;2.60;0.53;;;7.20;96.60;;;;;;5136730;27;20815;-58
2023/01/15 08:32:18;;;;;;;4.20;0.87;;;7.10;96.70;;;;;;5136351;27;21069;-58
2023/01/15 08:34:44;;;;;;;1.27;0.70;;;7.10;97.30;;;;;;5136490;27;20435;-58
2023/01/15 08:37:11;;;;;;;0.80;0.50;;;7.10;97.50;;;;;;5136727;27;20449;-58
2023/01/15 08:39:38;;;;;;;2.97;0.70;;;7.10;97.80;;;;;;5136187;27;20461;-58
2023/01/15 08:42:04;;;;;;;2.47;0.70;;;7.10;98.10;;;;;;5136223;27;20472;-58
2023/01/15 08:44:31;;;;;;;1.90;0.57;;;7.10;98.40;;;;;;5136167;27;20445;-58
2023/01/15 08:47:00;;;;;;;2.60;0.80;;;7.00;98.70;;;;;;5136314;27;20434;-58
2023/01/15 08:49:26;;;;;;;4.90;0.70;;;7.00;99.10;;;;;;5136071;27;20465;-58
2023/01/15 08:51:53;;;;;;;2.63;0.70;;;6.90;99.30;;;;;;5136029;27;20493;-57
2023/01/15 08:54:23;;;;;;;3.63;0.97;;;6.90;99.50;;;;;;5136094;27;20805;-58
2023/01/15 08:56:50;;;;;;;2.33;0.87;;;6.90;99.70;;;;;;5136030;27;20459;-58
2023/01/15 08:59:17;;;;;;;5.70;0.87;;;6.90;99.90;;;;;;5135955;27;20431;-58
2023/01/15 09:01:44;;;;;;;5.30;0.90;;;6.90;99.90;;;;;;5135488;27;21016;-58
2023/01/15 09:04:15;;;;;;;4.20;1.07;;;6.90;99.90;;;;;;5135964;27;20787;-58
2023/01/15 09:06:41;;;;;;;2.70;1.00;;;6.90;99.90;;;;;;5135060;27;20904;-58
2023/01/15 09:09:08;;;;;;;5.00;1.13;;;6.90;99.90;;;;;;5135334;27;20835;-58
2023/01/15 09:11:35;;;;;;;5.93;0.90;;;6.80;99.90;;;;;;5135736;27;20477;-58
2023/01/15 09:14:02;;;;;;;1.53;0.70;;;6.90;99.90;;;;;;5135680;27;20456;-58
2023/01/15 09:16:30;;;;;;;4.07;1.43;;;6.90;99.90;;;;;;5135578;27;20436;-57
2023/01/15 09:18:57;;;;;;;4.00;2.50;;;6.90;99.90;;;;;;5135815;27;20483;-57
2023/01/15 09:21:25;;;;;;;5.63;1.00;;;7.00;99.90;;;;;;5135464;27;20442;-57
2023/01/15 09:23:52;;;;;;;3.97;1.13;;;7.00;99.90;;;;;;5135359;27;20449;-58
2023/01/15 09:26:28;;;;;;;3.23;1.10;;;7.00;99.50;;;;;;5135513;27;20474;-58
2023/01/15 09:28:55;;;;;;;10.23;1.60;;;7.00;99.40;;;;;;5135605;27;20469;-58
2023/01/15 09:31:21;;;;;;;4.03;1.10;;;7.10;99.60;;;;;;5135090;27;20891;-58
2023/01/15 09:33:48;;;;;;;11.90;1.70;;;7.20;99.30;;;;;;5135431;27;20451;-57
2023/01/15 09:36:16;;;;;;;7.07;1.27;;;7.30;98.90;;;;;;5135380;27;20443;-57
2023/01/15 09:38:44;;;;;;;4.30;1.03;;;7.30;98.60;;;;;;5135344;27;20484;-58
2023/01/15 09:42:04;;;;;;;10.13;1.53;;;7.20;98.30;;;;;;5134981;27;20972;-58
2023/01/15 09:44:12;;;;;;;3.33;0.80;;;7.20;98.10;;;;;;5134609;27;20473;-57
2023/01/15 09:46:44;;;;;;;6.93;1.57;;;7.20;98.00;;;;;;5135028;27;20466;-56
2023/01/15 09:49:24;;;;;;;5.73;1.33;;;7.30;98.40;;;;;;5135214;27;20519;-57
2023/01/15 09:52:00;;;;;;;5.13;1.20;;;7.40;97.70;;;;;;5134980;27;20467;-57
2023/01/15 09:54:45;;;;;;;6.80;1.90;;;7.50;97.70;;;;;;5135194;27;20437;-57
2023/01/15 09:57:15;;;;;;;8.40;1.23;;;7.50;97.30;;;;;;5135083;27;20435;-58
2023/01/15 09:59:46;;;;;;;3.43;1.07;;;7.60;97.30;;;;;;5135047;27;20452;-58
2023/01/15 10:02:22;;;;;;;5.63;1.53;;;7.60;97.00;;;;;;5134887;27;20472;-57
2023/01/15 10:04:51;;;;;;;8.20;1.60;;;7.70;96.80;;;;;;5134802;27;20439;-57
2023/01/15 10:07:25;;;;;;;7.53;1.30;;;7.70;96.60;;;;;;5135004;27;20439;-57
2023/01/15 10:10:00;;;;;;;5.93;1.40;;;7.80;96.10;;;;;;5134602;27;20781;-56
2023/01/15 10:12:34;;;;;;;3.37;1.20;;;7.80;95.60;;;;;;5134694;27;20480;-55
2023/01/15 10:15:07;;;;;;;7.63;2.00;;;7.80;95.50;;;;;;5134790;27;20419;-55
2023/01/15 10:17:40;;;;;;;7.80;0.90;;;7.80;95.40;;;;;;5135424;27;20425;-55
2023/01/15 10:20:14;;;;;;;10.83;2.43;;;7.90;95.10;;;;;;5133825;27;20428;-54
2023/01/15 10:22:58;;;;;;;9.73;1.40;;;7.90;95.20;;;;;;5114250;28;20464;-55
2023/01/15 10:25:32;;;;;;;6.33;1.10;;;7.90;94.40;;;;;;5114112;28;20469;-55
2023/01/15 10:28:05;;;;;;;8.70;1.50;;;8.00;94.10;;;;;;5114003;28;20429;-56
2023/01/15 10:30:42;;;;;;;10.20;2.17;;;8.00;94.10;;;;;;5114038;28;20443;-55
2023/01/15 10:33:24;;;;;;;5.73;1.50;;;8.00;93.80;;;;;;5113909;28;20490;-55
2023/01/15 10:35:57;;;;;;;6.43;1.27;;;8.00;93.70;;;;;;5114069;28;20431;-55
2023/01/15 10:38:30;;;;;;;4.83;1.03;;;8.00;92.70;;;;;;5113980;28;20437;-55
2023/01/15 10:41:18;;;;;;;4.23;1.10;;;8.00;93.20;;;;;;5113741;28;20955;-55
2023/01/15 10:43:54;;;;;;;5.93;1.43;;;8.00;93.60;;;;;;5114000;28;20440;-55
2023/01/15 10:46:25;;;;;;;7.90;1.20;;;8.10;93.30;;;;;;5114057;28;20968;-55
2023/01/15 10:48:56;;;;;;;3.17;1.23;;;8.00;92.40;;;;;;5113728;28;20521;-55
2023/01/15 10:51:26;;;;;;;5.40;1.20;;;8.00;92.50;;;;;;5113341;28;20995;-55
2023/01/15 10:53:58;;;;;;;5.23;1.00;;;8.10;92.30;;;;;;5114220;28;20431;-57
2023/01/15 10:56:32;;;;;;;10.77;1.40;;;8.20;92.80;;;;;;5113983;28;20432;-56
2023/01/15 10:59:07;;;;;;;6.03;1.63;;;8.20;91.70;;;;;;5113981;28;20442;-56
2023/01/15 11:01:35;;;;;;;5.23;0.90;;;8.30;91.60;;;;;;5113977;28;20465;-57
2023/01/15 11:04:01;;;;;;;5.90;1.27;;;8.40;91.60;;;;;;5113618;28;20437;-56
2023/01/15 11:06:31;;;;;;;3.90;0.80;;;8.40;91.50;;;;;;5113832;28;20464;-56
2023/01/15 11:08:59;;;;;;;5.93;1.53;;;8.30;91.70;;;;;;5114015;28;20450;-56
2023/01/15 11:20:03;;;;;;;3.27;1.00;;;8.30;90.90;;;;;;5113851;28;20442;-57
2023/01/15 11:22:31;;;;;;;4.27;1.23;;;8.30;91.70;;;;;;5113724;28;20855;-57
2023/01/15 11:24:59;;;;;;;5.27;1.20;;;8.10;91.10;;;;;;5113521;28;20458;-57
2023/01/15 11:27:32;;;;;;;6.07;1.80;;;8.10;91.70;;;;;;5113732;28;20487;-58
2023/01/15 11:30:00;;;;;;;5.63;1.63;;;8.10;91.70;;;;;;5116458;28;20916;-58
2023/01/15 11:32:30;;;;;;;6.53;1.37;;;8.20;92.00;;;;;;5117490;28;20477;-58
2023/01/15 11:34:58;;;;;;;7.83;1.60;;;8.20;92.40;;;;;;5117223;28;20469;-58
2023/01/15 11:37:26;;;;;;;8.40;1.77;;;8.20;91.70;;;;;;5117343;28;20425;-57
2023/01/15 11:39:55;;;;;;;3.50;1.00;;;8.30;91.90;;;;;;5117711;28;20462;-58
2023/01/15 11:50:53;;;;;;;2.83;0.93;;;8.30;91.90;;;;;;5116488;28;20885;-57
2023/01/15 11:53:24;;;;;;;2.67;0.67;;;8.40;91.90;;;;;;5116353;28;20991;-58
2023/01/15 11:55:53;;;;;;;6.27;1.00;;;8.40;91.20;;;;;;5116409;28;20422;-57
2023/01/15 11:58:21;;;;;;;2.97;0.80;;;8.50;91.90;;;;;;5117476;28;20441;-58
2023/01/15 12:00:52;;;;;;;5.07;0.90;;;8.50;91.20;;;;;;5116586;28;20449;-58
2023/01/15 12:03:20;;;;;;;4.97;0.80;;;8.50;91.60;;;;;;5116465;28;20496;-58
2023/01/15 12:05:53;;;;;;;7.27;1.50;;;8.60;91.30;;;;;;5116381;28;20491;-59
2023/01/15 12:08:30;;;;;;;4.13;1.23;;;8.70;91.00;;;;;;5116554;28;20429;-58
2023/01/15 12:11:12;;;;;;;5.90;0.80;;;8.60;90.30;;;;;;5116505;28;20434;-57
2023/01/15 12:13:50;;;;;;;6.77;0.90;;;8.60;90.20;;;;;;5116436;28;20434;-58
2023/01/15 12:16:29;;;;;;;6.73;1.30;;;8.50;90.20;;;;;;5116909;28;20436;-58
2023/01/15 12:18:58;;;;;;;5.63;0.80;;;8.30;90.20;;;;;;5116224;28;20460;-58
2023/01/15 12:21:58;;;;;;;7.10;1.03;;;8.50;91.10;;;;;;5116204;28;20438;-58
2023/01/15 12:24:46;;;;;;;1.10;1.00;;;8.80;91.10;;;;;;5115723;28;20449;-58
2023/01/15 12:27:35;;;;;;;1.97;0.73;;;9.00;90.30;;;;;;5115785;28;20497;-58
2023/01/15 12:30:13;;;;;;;5.60;1.67;;;9.10;89.80;;;;;;5116873;27;20444;-57
2023/01/15 12:32:47;;;;;;;5.40;1.03;;;9.30;88.90;;;;;;5136598;27;20472;-58
2023/01/15 12:35:18;;;;;;;2.33;0.77;;;9.40;88.10;;;;;;5136487;27;20431;-58
2023/01/15 12:37:48;;;;;;;1.90;1.23;;;9.50;86.10;;;;;;5136186;27;20826;-58
2023/01/15 12:40:22;;;;;;;9.50;1.40;;;9.50;85.30;;;;;;5134571;27;20462;-57
2023/01/15 12:45:40;;;;;;;4.27;1.20;;;9.40;85.40;;;;;;5136532;27;20926;-58
2023/01/15 12:48:16;;;;;;;5.40;1.27;;;9.20;86.80;;;;;;5136312;27;20461;-58
2023/01/15 12:50:45;;;;;;;3.03;1.23;;;9.20;87.70;;;;;;5136013;27;20968;-58
2023/01/15 12:53:17;;;;;;;2.30;0.70;;;9.20;86.60;;;;;;5136112;27;20473;-58
2023/01/15 12:55:50;;;;;;;5.00;1.30;;;9.00;87.20;;;;;;5136257;27;20434;-58
2023/01/15 12:58:38;;;;;;;3.97;1.13;;;8.90;87.80;;;;;;5135670;27;20918;-58
2023/01/15 13:01:12;;;;;;;2.50;0.90;;;9.00;87.80;;;;;;5136179;27;20422;-59
2023/01/15 13:03:51;;;;;;;4.20;0.90;;;9.20;86.30;;;;;;5136108;27;20432;-58
2023/01/15 13:06:19;;;;;;;6.77;1.07;;;9.20;84.90;;;;;;5135629;27;20564;-58
2023/01/15 13:08:55;;;;;;;4.57;1.20;;;9.20;86.10;;;;;;5135956;27;20453;-58
2023/01/15 13:11:22;;;;;;;2.60;0.93;;;9.20;85.40;;;;;;5135719;27;20458;-58
2023/01/15 13:13:57;;;;;;;4.17;1.30;;;9.10;86.40;;;;;;5135312;27;20464;-57
2023/01/15 13:16:35;;;;;;;5.23;1.03;;;9.30;87.30;;;;;;5135045;27;20923;-57
2023/01/15 13:19:20;;;;;;;6.40;2.07;;;9.50;85.80;;;;;;5135245;27;20437;-58
2023/01/15 13:21:50;;;;;;;3.27;1.17;;;9.40;83.40;;;;;;5128472;27;20483;-58
2023/01/15 13:24:43;;;;;;;2.93;0.87;;;9.20;84.30;;;;;;5135221;27;20430;-58
2023/01/15 13:27:24;;;;;;;3.63;1.07;;;9.00;84.80;;;;;;5135562;27;20470;-58
2023/01/15 13:30:02;;;;;;;7.07;1.00;;;8.80;85.80;;;;;;5135717;27;20442;-58
2023/01/15 13:32:32;;;;;;;3.20;0.70;;;8.70;86.50;;;;;;5134796;27;20459;-57
2023/01/15 13:35:05;;;;;;;5.33;1.07;;;8.60;87.70;;;;;;5135203;27;20448;-58
2023/01/15 13:37:37;;;;;;;4.93;1.10;;;8.60;87.30;;;;;;5135251;27;20899;-58
2023/01/15 13:40:13;;;;;;;5.23;1.13;;;8.60;87.80;;;;;;5135053;27;20467;-58
2023/01/15 13:42:45;;;;;;;5.40;0.93;;;8.60;87.90;;;;;;5135170;27;20466;-58
2023/01/15 13:45:26;;;;;;;6.70;1.57;;;8.50;88.20;;;;;;5135192;27;20436;-57
2023/01/15 13:47:56;;;;;;;2.43;0.90;;;8.50;89.20;;;;;;5134806;27;20563;-57
2023/01/15 13:50:29;;;;;;;4.77;0.90;;;8.50;88.60;;;;;;5135160;27;20435;-58
2023/01/15 13:53:03;;;;;;;3.60;1.10;;;8.40;87.90;;;;;;5134413;27;20491;-57
2023/01/15 13:55:33;;;;;;;2.60;0.93;;;8.40;88.20;;;;;;5136120;27;20454;-58
2023/01/15 13:58:00;;;;;;;7.27;1.00;;;8.50;87.50;;;;;;5136080;27;20907;-58